Terminal Aerodrome Forecast
Issued by NWS Charleston, WV

Current Version | Previous Version | Text Only | Print | Product List | Glossary Off
Versions: 1 2 3 4 5 6 7 8 9 10 11 12 13 14 15 16 17 18 19 20

836
FTUS41 KRLX 032330
TAFPKB
TAF
KPKB 032330Z 0400/0424 24008KT P6SM FEW050
     FM040700 26007KT P6SM BKN025
     FM042100 27006KT P6SM BKN045=

USA.gov is the U.S. government's official web portal to all federal, state and local government web resources and services.